Time;durP1;ratioP1;P1;durP2;ratioP2;P2;SDS_P1;SDS_P2;PMS_P1;PMS_P2;Temp;Humidity;BMP_temperature;BMP_pressure;BME280_temperature;BME280_humidity;BME280_pressure;Samples;Min_cycle;Max_cycle;Signal;HPM_P1;HPM_P2
2021/12/05 00:20:58;;;;;;;15.43;5.00;;;;;;;3.69;100.00;99687.06;5053237;28;20052;-69
2021/12/05 00:23:34;;;;;;;11.23;3.75;;;;;;;3.70;100.00;99695.88;5090205;28;20054;-70
2021/12/05 00:26:05;;;;;;;19.65;4.50;;;;;;;3.66;100.00;99696.84;5081204;28;20136;-71
2021/12/05 00:28:55;;;;;;;14.43;4.07;;;;;;;3.64;100.00;99690.72;5091350;28;20082;-71
2021/12/05 00:43:17;;;;;;;12.02;3.50;;;;;;;3.55;100.00;99697.06;5083789;28;20047;-70
2021/12/05 00:46:02;;;;;;;11.97;3.70;;;;;;;3.54;100.00;99697.97;5086996;28;20058;-70
2021/12/05 00:57:25;;;;;;;16.80;3.95;;;;;;;3.45;100.00;99685.84;5091349;28;20083;-70
2021/12/05 01:02:46;;;;;;;15.25;4.35;;;;;;;3.45;100.00;99683.22;5072897;28;20097;-69
2021/12/05 01:06:10;;;;;;;16.95;3.72;;;;;;;3.53;100.00;99681.28;5080029;28;20085;-68
2021/12/05 01:11:43;;;;;;;9.65;3.80;;;;;;;3.44;100.00;99683.22;5088636;28;20039;-68
2021/12/05 01:14:23;;;;;;;9.02;3.72;;;;;;;3.46;100.00;99689.38;5083286;28;20171;-70
2021/12/05 01:16:53;;;;;;;10.05;3.38;;;;;;;3.46;100.00;99690.22;5083397;28;20142;-68
2021/12/05 01:19:24;;;;;;;10.95;4.10;;;;;;;3.44;100.00;99677.97;5088036;28;20063;-70
2021/12/05 01:21:55;;;;;;;14.13;3.90;;;;;;;3.46;100.00;99674.41;5086708;28;20675;-70
2021/12/05 01:24:34;;;;;;;12.15;4.15;;;;;;;3.44;100.00;99667.41;5085784;28;20052;-70
2021/12/05 01:27:12;;;;;;;8.43;3.53;;;;;;;3.51;100.00;99667.25;5087810;27;20473;-68
2021/12/05 01:29:47;;;;;;;14.80;3.60;;;;;;;3.50;100.00;99670.78;5090621;27;20044;-68
2021/12/05 01:32:34;;;;;;;12.70;4.45;;;;;;;3.44;100.00;99668.31;5087793;27;21793;-70
2021/12/05 01:35:13;;;;;;;12.38;4.18;;;;;;;3.37;100.00;99658.75;5092530;27;20056;-70
2021/12/05 01:37:57;;;;;;;13.18;3.92;;;;;;;3.39;100.00;99667.53;5086805;27;20051;-68
2021/12/05 01:40:42;;;;;;;;;;;;;;;3.40;100.00;99671.03;5094644;27;20138;-69
2021/12/05 02:00:00;;;;;;;11.98;3.42;;;;;;;3.32;100.00;99679.09;5093946;27;20050;-68
2021/12/05 02:11:25;;;;;;;12.30;3.17;;;;;;;3.33;100.00;99678.19;5092053;27;20138;-69
2021/12/05 02:29:24;;;;;;;10.75;3.38;;;;;;;3.28;100.00;99664.25;5089597;27;20051;-69
2021/12/05 02:31:08;;;;;;;11.07;4.57;;;;;;;3.31;100.00;99666.81;5084822;27;20108;-69
2021/12/05 02:36:41;;;;;;;14.85;4.35;;;;;;;3.26;100.00;99673.97;5085355;27;20732;-68
2021/12/05 02:39:23;;;;;;;10.38;4.07;;;;;;;3.24;100.00;99675.75;5083150;27;20384;-69
2021/12/05 02:41:53;;;;;;;18.88;5.28;;;;;;;3.25;100.00;99677.47;5091272;27;20047;-68
2021/12/05 02:44:24;;;;;;;15.48;4.70;;;;;;;3.23;100.00;99676.66;5084931;27;20048;-68
2021/12/05 02:46:59;;;;;;;10.30;4.45;;;;;;;3.23;100.00;99679.28;5088025;27;20266;-68
2021/12/05 02:49:28;;;;;;;10.55;4.43;;;;;;;3.14;100.00;99683.84;5085445;27;20771;-68
2021/12/05 02:51:59;;;;;;;11.70;5.00;;;;;;;3.12;100.00;99668.97;5091816;27;20311;-69
2021/12/05 02:54:34;;;;;;;12.38;5.10;;;;;;;3.08;100.00;99669.91;5086913;27;20112;-68
2021/12/05 02:57:02;;;;;;;10.77;4.53;;;;;;;3.10;100.00;99666.38;5091519;27;20092;-68
2021/12/05 02:59:42;;;;;;;12.82;5.30;;;;;;;3.11;100.00;99669.84;5085136;27;20080;-68
2021/12/05 03:02:13;;;;;;;17.05;5.28;;;;;;;3.15;100.00;99659.22;5090141;27;20488;-68
2021/12/05 03:04:45;;;;;;;11.52;5.00;;;;;;;3.15;100.00;99664.50;5085173;27;20059;-68
2021/12/05 03:07:14;;;;;;;12.20;5.32;;;;;;;3.16;100.00;99660.09;5089519;28;20540;-68
2021/12/05 03:09:44;;;;;;;16.20;5.32;;;;;;;3.19;100.00;99670.56;5089137;27;20051;-68
2021/12/05 03:12:17;;;;;;;11.50;5.05;;;;;;;3.15;100.00;99663.63;5086106;27;20279;-68
2021/12/05 03:14:46;;;;;;;11.18;3.88;;;;;;;3.08;100.00;99665.53;5089884;27;20055;-69
2021/12/05 03:17:15;;;;;;;9.95;3.90;;;;;;;3.08;100.00;99676.06;5089013;27;20058;-68
2021/12/05 03:19:43;;;;;;;8.80;3.53;;;;;;;3.09;100.00;99675.16;5089537;27;20055;-68
2021/12/05 03:22:11;;;;;;;4.68;2.40;;;;;;;3.04;100.00;99670.88;5085901;27;20146;-68
2021/12/05 03:24:40;;;;;;;5.50;3.17;;;;;;;2.99;100.00;99670.97;5087675;27;20109;-69
2021/12/05 03:27:09;;;;;;;6.30;2.88;;;;;;;2.96;100.00;99671.03;5088416;27;20883;-69
2021/12/05 03:29:37;;;;;;;5.18;2.75;;;;;;;2.95;100.00;99674.56;5093121;27;20139;-68
2021/12/05 03:32:05;;;;;;;4.95;2.55;;;;;;;2.95;100.00;99666.66;5081225;27;20555;-68
2021/12/05 03:34:34;;;;;;;6.40;2.80;;;;;;;2.89;100.00;99679.94;5091734;27;20562;-68
2021/12/05 03:37:04;;;;;;;4.47;2.88;;;;;;;2.87;100.00;99669.44;5089107;27;20058;-68
2021/12/05 03:39:33;;;;;;;4.10;2.85;;;;;;;2.93;100.00;99664.06;5092095;27;20044;-70
2021/12/05 03:42:01;;;;;;;5.07;3.60;;;;;;;2.90;100.00;99671.16;5084743;27;20067;-69
2021/12/05 03:44:33;;;;;;;7.90;3.50;;;;;;;2.92;100.00;99678.13;5087646;27;20423;-68
2021/12/05 03:47:05;;;;;;;8.07;4.07;;;;;;;2.88;100.00;99679.09;5085597;27;20052;-69
2021/12/05 03:49:34;;;;;;;7.55;3.55;;;;;;;2.86;100.00;99667.72;5091790;27;21154;-68
2021/12/05 03:52:08;;;;;;;10.95;4.53;;;;;;;2.87;100.00;99677.34;5079784;28;20048;-68
2021/12/05 03:54:36;;;;;;;11.32;5.07;;;;;;;2.89;100.00;99688.72;5091426;27;20052;-69
2021/12/05 03:57:05;;;;;;;8.82;4.22;;;;;;;2.91;100.00;99699.22;5087128;27;20062;-69
2021/12/05 03:59:36;;;;;;;11.05;5.40;;;;;;;2.89;100.00;99701.91;5087880;27;20054;-68
2021/12/05 04:02:07;;;;;;;11.25;5.97;;;;;;;2.87;100.00;99695.78;5086347;27;21791;-69
2021/12/05 04:04:35;;;;;;;11.43;5.38;;;;;;;2.87;100.00;99702.84;5084638;27;20124;-69
2021/12/05 04:07:06;;;;;;;10.35;4.90;;;;;;;2.85;100.00;99702.88;5087944;27;20097;-69
2021/12/05 04:09:34;;;;;;;9.73;5.22;;;;;;;2.91;100.00;99694.84;5084546;28;20087;-68
2021/12/05 04:12:04;;;;;;;9.63;5.40;;;;;;;2.91;100.00;99699.22;5087739;27;20063;-69
2021/12/05 04:14:38;;;;;;;12.32;6.28;;;;;;;2.88;100.00;99701.91;5088161;28;20148;-68
2021/12/05 04:17:09;;;;;;;11.27;5.70;;;;;;;2.87;100.00;99700.19;5087315;27;20059;-69
2021/12/05 04:19:38;;;;;;;14.50;5.82;;;;;;;2.94;100.00;99702.69;5084882;27;20058;-68
2021/12/05 04:22:10;;;;;;;13.30;5.43;;;;;;;2.95;100.00;99706.19;5087244;28;20140;-68
2021/12/05 04:24:39;;;;;;;15.18;6.63;;;;;;;2.91;100.00;99707.13;5084932;28;20101;-69
2021/12/05 04:27:08;;;;;;;12.50;6.18;;;;;;;2.92;100.00;99709.75;5091417;27;20135;-69
2021/12/05 04:29:38;;;;;;;9.95;5.53;;;;;;;2.87;100.00;99708.97;5091827;27;20506;-69
2021/12/05 04:32:08;;;;;;;10.57;5.72;;;;;;;2.85;100.00;99705.50;5087388;27;20044;-69
2021/12/05 04:34:37;;;;;;;13.05;6.07;;;;;;;2.87;100.00;99708.97;5084005;28;20618;-69
2021/12/05 04:37:06;;;;;;;11.75;6.50;;;;;;;2.83;100.00;99715.19;5089147;28;20166;-69
2021/12/05 04:39:34;;;;;;;14.23;6.15;;;;;;;2.77;100.00;99712.66;5090431;28;20525;-69
2021/12/05 04:42:03;;;;;;;10.90;6.13;;;;;;;2.81;100.00;99719.63;5085996;28;20075;-69
2021/12/05 04:44:31;;;;;;;12.23;5.47;;;;;;;2.81;100.00;99714.38;5084106;28;20044;-69
2021/12/05 04:47:01;;;;;;;10.13;5.55;;;;;;;2.78;100.00;99711.78;5089664;28;20420;-68
2021/12/05 04:49:29;;;;;;;13.50;5.78;;;;;;;2.74;100.00;99716.25;5086612;28;20464;-68
2021/12/05 04:51:57;;;;;;;11.23;5.38;;;;;;;2.77;100.00;99718.78;5088190;28;20272;-68
2021/12/05 04:54:25;;;;;;;13.90;5.90;;;;;;;2.77;100.00;99723.19;5086676;28;20048;-68
2021/12/05 04:56:52;;;;;;;13.68;5.32;;;;;;;2.76;100.00;99721.50;5084327;28;20503;-69
2021/12/05 04:59:24;;;;;;;11.68;5.38;;;;;;;2.74;100.00;99721.50;5083090;27;20048;-69
2021/12/05 05:01:53;;;;;;;11.13;5.68;;;;;;;2.75;100.00;99725.88;5092140;27;20139;-69
2021/12/05 05:04:27;;;;;;;11.90;4.97;;;;;;;2.77;100.00;99726.69;5090566;27;20043;-68
2021/12/05 05:06:58;;;;;;;11.37;5.50;;;;;;;2.81;100.00;99743.34;5091219;27;20519;-69
2021/12/05 05:09:26;;;;;;;11.45;4.70;;;;;;;2.78;100.00;99738.13;5087495;27;21998;-69
2021/12/05 05:11:54;;;;;;;11.48;4.65;;;;;;;2.79;100.00;99745.13;5090895;27;20430;-69
2021/12/05 05:14:22;;;;;;;8.02;4.10;;;;;;;2.76;100.00;99753.09;5088764;27;20101;-69
2021/12/05 05:16:54;;;;;;;7.80;3.85;;;;;;;2.75;100.00;99744.31;5092080;27;20135;-69
2021/12/05 05:19:28;;;;;;;13.18;4.95;;;;;;;2.77;100.00;99758.31;5094539;27;20078;-69
2021/12/05 05:22:04;;;;;;;11.40;4.57;;;;;;;2.80;100.00;99753.00;5086229;27;20035;-69
2021/12/05 05:47:07;;;;;;;14.45;5.38;;;;;;;2.56;100.00;99750.78;5089374;27;20044;-69
2021/12/05 05:49:49;;;;;;;15.38;6.03;;;;;;;2.54;100.00;99756.09;5095635;27;20047;-69
2021/12/05 05:52:20;;;;;;;12.43;5.57;;;;;;;2.49;100.00;99768.47;5087238;27;20058;-69
2021/12/05 05:54:50;;;;;;;11.52;5.35;;;;;;;2.48;100.00;99765.84;5091389;27;20093;-69
2021/12/05 05:57:24;;;;;;;10.02;5.35;;;;;;;2.43;100.00;99766.81;5088732;27;20047;-69
2021/12/05 06:00:00;;;;;;;10.43;5.20;;;;;;;2.39;100.00;99778.25;5090128;27;20113;-69
2021/12/05 06:05:16;;;;;;;11.02;5.35;;;;;;;2.36;100.00;99777.44;5092079;27;20134;-69
2021/12/05 06:07:46;;;;;;;11.13;5.43;;;;;;;2.33;100.00;99769.59;5093099;27;20135;-69
2021/12/05 06:10:17;;;;;;;9.70;5.28;;;;;;;2.30;100.00;99781.06;5092639;27;20174;-69
2021/12/05 06:12:46;;;;;;;10.52;4.75;;;;;;;2.32;100.00;99791.56;5088700;27;20101;-69
2021/12/05 06:15:17;;;;;;;11.27;5.25;;;;;;;2.27;100.00;99788.97;5089538;27;20232;-69
2021/12/05 06:17:45;;;;;;;10.02;4.75;;;;;;;2.23;100.00;99789.91;5089223;27;20044;-70
2021/12/05 06:20:16;;;;;;;10.35;4.78;;;;;;;2.21;100.00;99794.31;5090166;28;20070;-69
2021/12/05 06:22:47;;;;;;;8.30;4.25;;;;;;;2.21;100.00;99800.47;5089368;27;20551;-69
2021/12/05 06:25:20;;;;;;;12.73;5.15;;;;;;;2.22;100.00;99796.94;5089242;27;20047;-70
2021/12/05 06:27:49;;;;;;;9.83;5.03;;;;;;;2.21;100.00;99799.59;5087626;27;20079;-69
2021/12/05 06:30:22;;;;;;;9.45;4.75;;;;;;;2.19;100.00;99802.25;5090922;27;20047;-69
2021/12/05 06:38:55;;;;;;;13.35;6.40;;;;;;;2.35;100.00;99812.53;5042586;28;20063;-69
2021/12/05 06:41:34;;;;;;;12.75;5.35;;;;;;;2.34;100.00;99816.94;5075427;27;20527;-69
2021/12/05 06:46:49;;;;;;;11.35;5.93;;;;;;;2.30;100.00;99830.19;5092015;27;20580;-69
2021/12/05 06:49:18;;;;;;;12.13;5.57;;;;;;;2.31;100.00;99824.03;5086206;27;20051;-69
2021/12/05 06:51:45;;;;;;;15.30;6.68;;;;;;;2.32;100.00;99833.69;5091396;27;20635;-69
2021/12/05 06:54:14;;;;;;;14.30;5.60;;;;;;;2.35;100.00;99831.88;5090695;27;20127;-69
2021/12/05 06:56:42;;;;;;;14.25;5.70;;;;;;;2.38;100.00;99829.19;5093852;27;20079;-69
2021/12/05 06:59:10;;;;;;;11.50;5.70;;;;;;;2.37;100.00;99840.63;5088560;27;20134;-69
2021/12/05 07:01:38;;;;;;;12.20;5.25;;;;;;;2.36;100.00;99846.75;5089241;27;20139;-69
2021/12/05 07:04:09;;;;;;;10.18;4.57;;;;;;;2.39;100.00;99851.13;5089028;27;20056;-69
2021/12/05 07:06:40;;;;;;;14.13;5.43;;;;;;;2.38;100.00;99859.91;5091687;27;20146;-69
2021/12/05 07:09:12;;;;;;;10.70;4.75;;;;;;;2.37;100.00;99861.69;5089374;27;20047;-70
2021/12/05 07:11:49;;;;;;;12.77;5.07;;;;;;;2.37;100.00;99866.09;5086555;27;20621;-70
2021/12/05 07:17:08;;;;;;;11.10;5.20;;;;;;;2.33;100.00;99864.38;5063705;28;20194;-71
2021/12/05 07:19:54;;;;;;;11.45;5.22;;;;;;;2.29;100.00;99870.56;5088603;27;20084;-68
2021/12/05 07:22:26;;;;;;;10.95;5.28;;;;;;;2.26;100.00;99875.88;5092071;27;20130;-69
2021/12/05 07:25:05;;;;;;;10.90;4.60;;;;;;;2.21;100.00;99873.28;5091856;27;20047;-70
2021/12/05 07:41:45;;;;;;;11.93;5.50;;;;;;;2.07;100.00;99902.44;5088565;27;20211;-71
2021/12/05 07:44:17;;;;;;;10.45;4.97;;;;;;;2.01;100.00;99907.75;5087668;27;20162;-69
2021/12/05 07:46:46;;;;;;;11.90;5.22;;;;;;;2.07;100.00;99918.22;5089425;27;20048;-68
2021/12/05 07:49:16;;;;;;;11.43;5.22;;;;;;;2.02;100.00;99914.78;5090650;27;20146;-69
2021/12/05 07:51:47;;;;;;;13.35;5.50;;;;;;;2.06;100.00;99924.38;5085147;27;20085;-69
2021/12/05 07:54:29;;;;;;;14.07;5.88;;;;;;;2.03;100.00;99921.78;5087955;28;20147;-68
2021/12/05 07:57:06;;;;;;;14.05;5.63;;;;;;;2.03;100.00;99917.38;5084999;27;20384;-69
2021/12/05 07:59:48;;;;;;;14.18;6.25;;;;;;;2.05;100.00;99920.00;5088858;27;20660;-70
2021/12/05 08:16:09;;;;;;;12.50;6.40;;;;;;;2.07;100.00;99949.81;5091469;27;20569;-71
2021/12/05 08:18:42;;;;;;;17.23;7.13;;;;;;;2.07;100.00;99943.69;5087232;27;20055;-70
2021/12/05 08:21:12;;;;;;;16.00;7.30;;;;;;;2.09;100.00;99950.66;5090938;27;20126;-70
2021/12/05 08:23:40;;;;;;;16.83;6.90;;;;;;;2.08;100.00;99948.03;5082665;27;20044;-70
2021/12/05 08:26:12;;;;;;;17.20;7.50;;;;;;;2.11;100.00;99948.91;5091079;27;20075;-70
2021/12/05 08:28:57;;;;;;;17.75;7.88;;;;;;;2.15;100.00;99957.63;5085535;28;20614;-71
2021/12/05 08:31:37;;;;;;;19.17;7.75;;;;;;;2.19;100.00;99964.59;5089259;27;20302;-70
2021/12/05 08:34:21;;;;;;;15.43;6.85;;;;;;;2.21;100.00;99957.53;5086067;28;20052;-70
2021/12/05 09:27:23;;;;;;;13.50;6.80;;;;;;;3.04;100.00;100045.16;5085300;28;20130;-70
2021/12/05 10:06:54;;;;;;;12.93;5.78;;;;;;;3.42;100.00;100084.16;5086197;27;20122;-74
2021/12/05 10:12:35;;;;;;;15.18;5.47;;;;;;;3.67;100.00;100102.25;5085361;27;20074;-74
2021/12/05 10:15:34;;;;;;;13.25;5.13;;;;;;;3.78;100.00;100104.72;5086985;27;20052;-70
2021/12/05 10:18:47;;;;;;;15.80;5.38;;;;;;;3.83;100.00;100105.53;5092642;27;20050;-69
2021/12/05 10:27:25;;;;;;;10.82;4.97;;;;;;;3.72;100.00;100109.19;5024720;28;20055;-70
2021/12/05 10:38:27;;;;;;;;;;;;;;;4.54;100.00;100117.50;5063769;27;20047;-69
2021/12/05 10:41:06;;;;;;;11.88;5.00;;;;;;;4.64;100.00;100114.66;5091555;27;19928;-69
2021/12/05 10:43:37;;;;;;;9.60;4.55;;;;;;;4.74;100.00;100125.94;5089367;27;20138;-69
2021/12/05 10:46:08;;;;;;;7.93;3.33;;;;;;;4.86;100.00;100122.16;5092738;27;20047;-70
2021/12/05 10:48:39;;;;;;;7.82;4.07;;;;;;;5.08;100.00;100122.59;5090076;27;20048;-72
2021/12/05 10:51:10;;;;;;;9.23;4.50;;;;;;;5.20;100.00;100121.47;5089793;27;20094;-72
2021/12/05 10:53:41;;;;;;;10.98;4.18;;;;;;;4.85;100.00;100129.25;5091348;27;20083;-72
2021/12/05 10:56:15;;;;;;;8.07;4.03;;;;;;;4.84;100.00;100129.28;5090729;27;20149;-70
2021/12/05 10:58:49;;;;;;;8.82;3.58;;;;;;;4.80;100.00;100132.84;5089027;27;20142;-70
2021/12/05 11:01:21;;;;;;;9.30;4.15;;;;;;;4.84;100.00;100140.69;5089265;27;20174;-72
2021/12/05 11:03:53;;;;;;;10.60;4.53;;;;;;;4.93;100.00;100144.94;5088379;27;20056;-71
2021/12/05 11:06:37;;;;;;;8.15;3.40;;;;;;;4.75;100.00;100138.25;5093246;27;20042;-70
2021/12/05 11:09:12;;;;;;;10.48;4.07;;;;;;;4.71;100.00;100144.47;5090847;27;20524;-71
2021/12/05 11:11:43;;;;;;;8.13;4.03;;;;;;;4.75;100.00;100148.81;5089784;27;20087;-71
2021/12/05 11:14:16;;;;;;;8.82;3.78;;;;;;;4.82;100.00;100139.88;5087851;27;20495;-72
2021/12/05 11:16:48;;;;;;;8.87;3.63;;;;;;;4.79;100.00;100142.56;5093068;27;20089;-71
2021/12/05 11:19:23;;;;;;;7.35;3.95;;;;;;;4.89;100.00;100142.38;5087208;27;20819;-69
2021/12/05 11:21:56;;;;;;;10.10;4.35;;;;;;;4.96;100.00;100151.94;5091080;27;20047;-70
2021/12/05 11:24:28;;;;;;;8.87;4.40;;;;;;;5.13;100.00;100156.91;5086566;27;20047;-70
2021/12/05 11:27:26;;;;;;;10.43;4.75;;;;;;;5.34;100.00;100152.91;5069945;28;20459;-70
2021/12/05 11:30:15;;;;;;;8.98;4.45;;;;;;;5.40;100.00;100153.66;5068222;28;20163;-71
2021/12/05 11:32:51;;;;;;;10.23;4.30;;;;;;;5.63;100.00;100152.28;5067498;28;20048;-71
2021/12/05 11:35:32;;;;;;;7.85;4.03;;;;;;;5.79;100.00;100144.88;5071509;28;20079;-71
2021/12/05 11:38:06;;;;;;;10.93;4.55;;;;;;;5.74;100.00;100150.25;5062390;28;20052;-70
2021/12/05 11:40:53;;;;;;;8.90;4.07;;;;;;;5.64;100.00;100151.38;5071087;28;20105;-71
2021/12/05 11:43:25;;;;;;;11.10;4.03;;;;;;;5.69;100.00;100154.78;5069882;28;20083;-71
2021/12/05 11:46:02;;;;;;;8.40;4.00;;;;;;;5.94;100.00;100160.41;5047709;28;20844;-71
2021/12/05 11:48:34;;;;;;;8.25;4.85;;;;;;;5.66;100.00;100159.28;5066023;28;20562;-71
2021/12/05 11:51:18;;;;;;;8.48;3.80;;;;;;;5.48;100.00;100158.78;5070460;28;20079;-71
2021/12/05 11:53:47;;;;;;;;;;;;;;;5.41;100.00;100173.03;5064627;28;20048;-71
2021/12/05 11:56:22;;;;;;;10.25;4.25;;;;;;;5.57;100.00;100174.47;5069045;28;19981;-72
2021/12/05 11:59:12;;;;;;;8.30;3.83;;;;;;;5.59;100.00;100182.38;5064814;28;20062;-71
2021/12/05 12:01:46;;;;;;;8.63;4.15;;;;;;;5.72;100.00;100188.25;5070519;28;20040;-71
2021/12/05 12:04:18;;;;;;;8.25;3.80;;;;;;;5.70;100.00;100193.56;5064177;28;20428;-72
2021/12/05 12:06:48;;;;;;;7.80;4.07;;;;;;;5.38;100.00;100192.53;5068806;28;20797;-69
2021/12/05 12:09:16;;;;;;;10.57;4.68;;;;;;;5.47;100.00;100194.09;5065125;28;20088;-73
2021/12/05 12:11:44;;;;;;;11.00;4.90;;;;;;;5.34;100.00;100188.19;5069678;28;20059;-70
2021/12/05 12:14:11;;;;;;;9.05;4.72;;;;;;;5.40;100.00;100190.69;5067320;28;20588;-75
2021/12/05 12:16:44;;;;;;;10.32;4.80;;;;;;;5.45;100.00;100201.19;5068122;28;20120;-68
2021/12/05 12:19:13;;;;;;;9.38;4.38;;;;;;;5.51;100.00;100195.75;5064617;28;20488;-71
2021/12/05 12:21:42;;;;;;;8.95;4.43;;;;;;;5.54;100.00;100205.41;5069424;28;20693;-72
2021/12/05 12:24:12;;;;;;;8.68;4.88;;;;;;;5.58;100.00;100212.38;5071156;28;20152;-71
2021/12/05 12:26:41;;;;;;;8.52;4.95;;;;;;;5.41;100.00;100212.72;5085584;27;20072;-71
2021/12/05 12:29:12;;;;;;;10.23;5.32;;;;;;;5.29;100.00;100218.28;5083364;27;20059;-71
2021/12/05 12:31:45;;;;;;;10.15;5.30;;;;;;;5.46;100.00;100223.22;5088657;28;20154;-68
2021/12/05 12:34:15;;;;;;;9.80;5.25;;;;;;;5.35;100.00;100215.53;5089927;28;20070;-69
2021/12/05 12:36:48;;;;;;;10.77;5.90;;;;;;;5.42;100.00;100217.13;5087655;27;20048;-68
2021/12/05 12:39:41;;;;;;;14.68;6.50;;;;;;;5.27;100.00;100223.59;5086440;28;20097;-68
2021/12/05 12:42:18;;;;;;;9.05;5.82;;;;;;;5.30;100.00;100233.28;5073069;28;20467;-68
2021/12/05 12:45:13;;;;;;;10.90;7.05;;;;;;;5.27;100.00;100230.69;5090763;28;20044;-68
2021/12/05 12:47:46;;;;;;;10.02;6.80;;;;;;;5.29;100.00;100237.66;5085307;28;20046;-69
2021/12/05 12:50:34;;;;;;;11.93;7.45;;;;;;;5.39;100.00;100236.56;5087197;28;20059;-70
2021/12/05 12:53:15;;;;;;;15.20;9.60;;;;;;;5.37;100.00;100248.09;5085011;28;20142;-68
2021/12/05 12:55:49;;;;;;;12.02;7.63;;;;;;;5.23;100.00;100243.09;5086893;28;20116;-69
2021/12/05 12:58:43;;;;;;;19.15;8.85;;;;;;;5.17;100.00;100245.84;5088975;28;20130;-70
2021/12/05 13:01:31;;;;;;;14.48;8.88;;;;;;;5.28;100.00;100249.16;5087549;28;20074;-69
2021/12/05 13:10:04;;;;;;;16.55;8.57;;;;;;;5.07;100.00;100257.50;5086172;28;20067;-71
2021/12/05 13:12:50;;;;;;;14.95;8.25;;;;;;;5.02;100.00;100263.75;5091661;28;20260;-71
2021/12/05 13:15:38;;;;;;;16.60;9.05;;;;;;;5.08;100.00;100264.56;5084370;28;20059;-72
2021/12/05 13:18:23;;;;;;;19.65;10.60;;;;;;;4.99;100.00;100276.16;5087102;28;20044;-70
2021/12/05 13:20:57;;;;;;;17.13;9.38;;;;;;;5.01;100.00;100282.31;5091220;27;20082;-70
2021/12/05 13:23:34;;;;;;;20.90;10.30;;;;;;;5.00;100.00;100278.75;5075044;28;20086;-73
2021/12/05 13:26:26;;;;;;;18.98;9.88;;;;;;;5.09;100.00;100282.16;5091102;27;20105;-73
2021/12/05 13:28:57;;;;;;;18.73;9.43;;;;;;;5.06;100.00;100277.78;5093761;27;20184;-72
2021/12/05 13:31:44;;;;;;;18.65;9.07;;;;;;;5.08;100.00;100286.56;5093138;27;20530;-72
2021/12/05 13:34:18;;;;;;;26.83;11.02;;;;;;;5.09;100.00;100293.63;5094840;27;20130;-72
2021/12/05 13:36:51;;;;;;;17.33;9.60;;;;;;;5.09;100.00;100288.31;5094354;27;20149;-72
2021/12/05 13:39:39;;;;;;;25.02;11.40;;;;;;;5.15;100.00;100289.97;5089916;27;20059;-71
2021/12/05 13:42:11;;;;;;;24.05;10.88;;;;;;;5.13;100.00;100286.50;5090328;27;20093;-72
2021/12/05 13:45:11;;;;;;;29.38;13.02;;;;;;;4.94;100.00;100302.69;5089413;27;20092;-72
2021/12/05 13:47:43;;;;;;;25.08;11.82;;;;;;;4.92;100.00;100298.31;5092677;28;20148;-71
2021/12/05 13:50:33;;;;;;;27.42;13.38;;;;;;;4.86;100.00;100308.09;5087575;27;20076;-71
2021/12/05 13:53:25;;;;;;;31.65;14.20;;;;;;;4.91;100.00;100312.44;5092105;27;20325;-72
2021/12/05 13:56:02;;;;;;;30.05;12.70;;;;;;;4.93;100.00;100313.28;5087790;27;20044;-68
2021/12/05 13:58:48;;;;;;;31.13;14.35;;;;;;;5.06;100.00;100317.47;5092894;27;20164;-73
2021/12/05 14:01:23;;;;;;;28.98;11.43;;;;;;;5.02;100.00;100321.03;5089499;27;20123;-73
2021/12/05 14:04:15;;;;;;;34.53;14.52;;;;;;;5.07;100.00;100326.25;5088554;27;20051;-73
2021/12/05 14:06:52;;;;;;;28.50;13.90;;;;;;;5.13;100.00;100328.81;5089439;27;20079;-70
2021/12/05 14:09:38;;;;;;;33.80;15.80;;;;;;;5.08;100.00;100336.81;5088833;27;20545;-71
2021/12/05 14:12:11;;;;;;;34.45;13.93;;;;;;;4.92;100.00;100345.91;5091427;27;20044;-73
2021/12/05 14:14:42;;;;;;;26.90;12.70;;;;;;;4.97;100.00;100349.34;5089389;27;20047;-76
2021/12/05 14:17:13;;;;;;;30.27;13.02;;;;;;;4.89;100.00;100354.78;5088413;27;20059;-75
2021/12/05 14:19:42;;;;;;;33.00;12.88;;;;;;;4.84;100.00;100354.84;5086977;27;20052;-74
2021/12/05 14:22:13;;;;;;;30.17;13.07;;;;;;;4.81;100.00;100365.47;5092832;27;20108;-74
2021/12/05 14:24:45;;;;;;;35.10;14.07;;;;;;;4.80;100.00;100373.41;5087872;27;20130;-74
2021/12/05 14:27:17;;;;;;;28.10;12.40;;;;;;;4.78;100.00;100384.00;5088470;27;20492;-74
2021/12/05 14:29:47;;;;;;;29.90;12.07;;;;;;;4.75;100.00;100386.72;5086924;27;20043;-74
2021/12/05 14:32:21;;;;;;;24.83;12.13;;;;;;;4.74;100.00;100390.25;5088853;27;20055;-74
2021/12/05 14:34:50;;;;;;;28.15;11.88;;;;;;;4.83;100.00;100398.03;5088201;27;20058;-74
2021/12/05 14:37:20;;;;;;;28.35;11.90;;;;;;;4.85;100.00;100406.84;5090252;27;20052;-74
2021/12/05 14:39:52;;;;;;;35.13;14.85;;;;;;;4.85;100.00;100398.91;5087977;27;20502;-74
2021/12/05 14:42:27;;;;;;;30.98;13.38;;;;;;;4.93;100.00;100411.13;5089372;27;20530;-75
2021/12/05 14:44:58;;;;;;;33.20;15.05;;;;;;;4.90;100.00;100414.66;5084927;27;20059;-74
2021/12/05 14:47:30;;;;;;;33.38;14.52;;;;;;;4.82;100.00;100414.81;5090082;27;20142;-75
2021/12/05 14:50:00;;;;;;;36.20;15.30;;;;;;;4.81;100.00;100425.41;5086122;27;20348;-72
2021/12/05 14:52:33;;;;;;;39.40;17.20;;;;;;;4.75;100.00;100430.75;5089621;27;20058;-72
2021/12/05 14:55:06;;;;;;;35.88;15.27;;;;;;;4.73;100.00;100436.06;5089533;27;20087;-72
2021/12/05 14:57:42;;;;;;;37.35;16.35;;;;;;;4.67;100.00;100439.69;5090353;27;20206;-74
2021/12/05 15:00:14;;;;;;;41.63;16.63;;;;;;;4.64;100.00;100445.00;5084627;27;20063;-73
2021/12/05 15:02:42;;;;;;;40.15;16.70;;;;;;;4.74;100.00;100458.97;5092528;27;20139;-70
2021/12/05 15:05:13;;;;;;;36.63;15.73;;;;;;;4.73;100.00;100472.22;5088528;27;20055;-69
2021/12/05 15:07:44;;;;;;;40.70;17.60;;;;;;;4.65;100.00;100473.19;5084947;27;20172;-69
2021/12/05 15:10:22;;;;;;;52.45;23.75;;;;;;;4.66;100.00;100484.63;5087372;27;20507;-72
2021/12/05 15:12:54;;;;;;;55.42;23.67;;;;;;;4.65;100.00;100490.84;5088967;27;20043;-73
2021/12/05 15:15:23;;;;;;;50.92;19.58;;;;;;;4.67;100.00;100495.19;5092110;27;20072;-71
2021/12/05 15:17:54;;;;;;;40.20;18.15;;;;;;;4.60;100.00;100503.22;5088200;27;20071;-72
2021/12/05 15:20:24;;;;;;;46.10;21.67;;;;;;;4.58;100.00;100508.53;5091713;27;20044;-73
2021/12/05 15:22:55;;;;;;;38.08;18.40;;;;;;;4.53;100.00;100507.72;5089650;27;20401;-71
2021/12/05 15:25:28;;;;;;;55.53;26.52;;;;;;;4.45;100.00;100512.22;5090052;27;20051;-68
2021/12/05 15:27:57;;;;;;;41.13;21.17;;;;;;;4.58;100.00;100524.38;5083555;27;20055;-68
2021/12/05 15:30:28;;;;;;;46.38;22.20;;;;;;;4.53;100.00;100520.03;5089573;27;20047;-69
2021/12/05 15:32:59;;;;;;;49.30;22.73;;;;;;;4.49;100.00;100532.41;5090812;27;20035;-68
2021/12/05 15:35:28;;;;;;;52.45;23.77;;;;;;;4.45;100.00;100541.28;5090528;27;20055;-69
2021/12/05 15:38:01;;;;;;;41.42;19.48;;;;;;;4.40;100.00;100546.59;5087723;27;20040;-69
2021/12/05 15:40:32;;;;;;;66.32;37.38;;;;;;;4.40;100.00;100546.59;5090265;27;20080;-69
2021/12/05 15:43:03;;;;;;;56.72;29.17;;;;;;;4.36;100.00;100544.00;5088112;27;20043;-69
2021/12/05 15:45:31;;;;;;;45.53;21.00;;;;;;;4.35;100.00;100553.72;5091618;27;20323;-69
2021/12/05 15:47:59;;;;;;;49.00;23.83;;;;;;;4.39;100.00;100557.19;5084152;27;20044;-73
2021/12/05 15:50:32;;;;;;;43.78;22.45;;;;;;;4.33;100.00;100560.78;5091279;27;20054;-72
2021/12/05 15:53:03;;;;;;;74.73;32.20;;;;;;;4.26;100.00;100562.63;5085662;28;20083;-73
2021/12/05 15:55:36;;;;;;;40.58;18.15;;;;;;;4.24;100.00;100569.69;5088851;27;20051;-72
2021/12/05 15:58:07;;;;;;;;;;;;;;;4.23;100.00;100590.81;5089321;27;20074;-72
2021/12/05 16:00:38;;;;;;;42.13;20.85;;;;;;;4.22;100.00;100592.59;5090843;27;19924;-73
2021/12/05 16:03:10;;;;;;;41.58;19.55;;;;;;;4.18;100.00;100582.06;5087654;27;20124;-72
2021/12/05 16:05:41;;;;;;;41.67;18.67;;;;;;;4.19;100.00;100595.28;5092375;27;20055;-73
2021/12/05 16:08:11;;;;;;;41.95;20.42;;;;;;;4.19;100.00;100595.28;5087134;27;20062;-70
2021/12/05 16:10:43;;;;;;;44.70;20.27;;;;;;;4.17;100.00;100601.44;5091967;28;20044;-73
2021/12/05 16:13:15;;;;;;;42.23;19.57;;;;;;;4.20;100.00;100609.34;5096498;27;20081;-73
2021/12/05 16:15:45;;;;;;;41.55;20.35;;;;;;;4.21;100.00;100606.69;5089975;27;20392;-73
2021/12/05 16:18:14;;;;;;;43.80;20.27;;;;;;;4.17;100.00;100620.81;5092550;28;20050;-72